Time;durP1;ratioP1;P1;durP2;ratioP2;P2;SDS_P1;SDS_P2;PMS_P1;PMS_P2;Temp;Humidity;BMP_temperature;BMP_pressure;BME280_temperature;BME280_humidity;BME280_pressure;Samples;Min_cycle;Max_cycle;Signal;HPM_P1;HPM_P2
2021/11/05 00:04:53;;;;;;;0.85;0.50;;;;;;;7.82;92.17;99181.52;3690267;78;98264;-83
2021/11/05 00:09:54;;;;;;;1.73;0.60;;;;;;;7.82;92.00;99197.16;3709989;78;52194;-84
2021/11/05 00:14:55;;;;;;;2.60;0.60;;;;;;;7.81;92.10;99197.72;3702730;78;98184;-83
2021/11/05 00:19:56;;;;;;;2.05;0.80;;;;;;;7.81;91.72;99205.94;3702421;79;98204;-84
2021/11/05 00:24:56;;;;;;;2.50;1.07;;;;;;;7.81;91.56;99231.95;3692774;78;98332;-84
2021/11/05 00:29:57;;;;;;;1.10;0.43;;;;;;;7.82;90.90;99232.75;3704735;78;98315;-88
2021/11/05 00:34:58;;;;;;;1.20;0.83;;;;;;;7.84;90.81;99246.84;3698720;78;98216;-87
2021/11/05 00:39:59;;;;;;;2.73;0.73;;;;;;;7.82;91.43;99250.55;3709955;78;28254;-85
2021/11/05 00:45:00;;;;;;;1.47;0.60;;;;;;;7.77;92.16;99277.73;3701154;78;97994;-87
2021/11/05 00:50:00;;;;;;;2.33;0.83;;;;;;;7.74;92.64;99277.13;3696105;78;98164;-87
2021/11/05 00:55:01;;;;;;;1.22;0.60;;;;;;;7.72;92.62;99293.17;3688442;78;98407;-88
2021/11/05 01:00:10;;;;;;;0.80;0.72;;;;;;;7.73;92.49;99303.52;3706964;78;98402;-86
2021/11/05 01:05:13;;;;;;;1.70;0.60;;;;;;;7.73;92.41;99320.75;3633674;79;98268;-89
2021/11/05 01:10:14;;;;;;;1.10;0.50;;;;;;;7.73;92.21;99325.44;3637654;80;98259;-86
2021/11/05 01:15:15;;;;;;;0.60;0.30;;;;;;;7.73;92.25;99338.55;3620983;80;98163;-83
2021/11/05 01:20:18;;;;;;;1.80;0.80;;;;;;;7.74;92.08;99351.67;3604312;80;149246;-88
2021/11/05 01:25:19;;;;;;;1.45;0.47;;;;;;;7.73;91.99;99354.98;3619343;80;98170;-86
2021/11/05 01:30:20;;;;;;;1.40;0.50;;;;;;;7.74;92.06;99381.80;3605580;80;98360;-87
2021/11/05 01:35:21;;;;;;;0.80;0.50;;;;;;;7.74;92.09;99377.09;3619148;80;98350;-84
2021/11/05 01:40:21;;;;;;;0.73;0.50;;;;;;;7.74;92.11;99397.63;3611065;80;98236;-85
2021/11/05 01:45:22;;;;;;;1.00;0.60;;;;;;;7.72;92.16;99405.45;3619756;80;97977;-87
2021/11/05 01:50:23;;;;;;;1.47;0.70;;;;;;;7.72;92.20;99422.45;3615277;80;98203;-85
2021/11/05 01:55:24;;;;;;;1.87;0.70;;;;;;;7.72;92.34;99429.30;3627290;80;98404;-87
2021/11/05 02:00:28;;;;;;;0.83;0.50;;;;;;;7.72;92.42;99440.25;3626903;80;98361;-88
2021/11/05 02:05:30;;;;;;;0.90;0.50;;;;;;;7.70;92.30;99442.59;3672374;78;98420;-87
2021/11/05 02:10:31;;;;;;;0.80;0.40;;;;;;;7.69;92.44;99453.36;3703069;78;98723;-86
2021/11/05 02:15:32;;;;;;;2.37;0.60;;;;;;;7.68;92.46;99470.36;3712295;78;97857;-86
2021/11/05 02:20:34;;;;;;;2.40;0.80;;;;;;;7.69;92.32;99472.52;3708947;78;98183;-90
2021/11/05 02:25:34;;;;;;;0.70;0.42;;;;;;;7.68;92.10;99475.06;3701910;78;98351;-87
2021/11/05 02:30:35;;;;;;;1.83;0.70;;;;;;;7.68;91.93;99488.75;3704384;78;98384;-86
2021/11/05 02:35:37;;;;;;;1.07;0.40;;;;;;;7.67;91.78;99507.70;3701726;78;98274;-85
2021/11/05 02:40:38;;;;;;;0.73;0.30;;;;;;;7.66;91.59;99515.14;3705162;78;145736;-85
2021/11/05 02:45:51;;;;;;;0.67;0.50;;;;;;;7.68;91.76;99523.76;3692433;78;98569;-87
2021/11/05 02:50:51;;;;;;;1.23;0.30;;;;;;;7.68;92.02;99538.05;3705960;78;98129;-89
2021/11/05 02:55:52;;;;;;;2.08;0.50;;;;;;;7.65;92.38;99538.79;3703597;78;99250;-86
2021/11/05 03:00:55;;;;;;;1.10;0.73;;;;;;;7.63;93.00;99551.48;3706917;78;98320;-87
2021/11/05 03:05:55;;;;;;;1.30;0.70;;;;;;;7.61;93.41;99568.89;3672885;78;98357;-87
2021/11/05 03:10:56;;;;;;;1.17;0.67;;;;;;;7.57;93.94;99569.43;3683061;79;98286;-88
2021/11/05 03:15:58;;;;;;;0.93;0.40;;;;;;;7.53;94.29;99595.21;3681111;79;98254;-87
2021/11/05 03:20:59;;;;;;;1.63;0.60;;;;;;;7.50;94.60;99590.47;3682803;79;98146;-87
2021/11/05 03:26:00;;;;;;;1.73;0.57;;;;;;;7.46;95.03;99598.66;3676321;79;98183;-88
2021/11/05 03:31:00;;;;;;;0.60;0.50;;;;;;;7.46;95.27;99617.02;3679873;79;98498;-86
2021/11/05 03:36:02;;;;;;;3.53;0.77;;;;;;;7.43;95.21;99621.33;3672985;79;98408;-88
2021/11/05 03:41:03;;;;;;;1.27;0.68;;;;;;;7.42;95.55;99632.64;3640133;79;98332;-87
2021/11/05 03:46:04;;;;;;;0.90;0.67;;;;;;;7.40;95.48;99648.06;3655313;79;97663;-89
2021/11/05 03:51:07;;;;;;;1.23;0.80;;;;;;;7.27;95.49;99640.48;3679482;79;98285;-90
2021/11/05 03:56:08;;;;;;;1.37;0.80;;;;;;;7.27;95.49;99640.48;3671828;79;98196;-86
2021/11/05 04:01:09;;;;;;;1.37;0.90;;;;;;;7.39;95.63;99676.60;3686189;79;98371;-87
2021/11/05 04:06:10;;;;;;;2.13;0.83;;;;;;;7.24;95.47;99672.11;3695130;78;98345;-86
2021/11/05 04:11:11;;;;;;;1.27;0.70;;;;;;;7.35;95.52;99699.59;3694494;78;98690;-90
2021/11/05 04:16:13;;;;;;;2.17;0.67;;;;;;;7.32;95.52;99706.61;3680302;78;98368;-87
2021/11/05 04:21:14;;;;;;;1.10;0.70;;;;;;;7.31;95.70;99715.98;3654755;80;98285;-86
2021/11/05 04:26:15;;;;;;;1.57;0.80;;;;;;;7.30;95.60;99724.59;3641329;79;98223;-87
2021/11/05 04:31:17;;;;;;;1.57;0.50;;;;;;;7.27;95.72;99735.70;3644154;79;98374;-91
2021/11/05 04:36:21;;;;;;;1.37;0.70;;;;;;;7.24;95.67;99737.80;3663898;78;98345;-87
2021/11/05 04:41:23;;;;;;;1.60;0.37;;;;;;;7.21;95.85;99756.31;3663774;79;98925;-88
2021/11/05 04:46:23;;;;;;;1.80;0.60;;;;;;;7.18;95.76;99761.17;3656711;79;98266;-86
2021/11/05 04:51:25;;;;;;;0.93;0.53;;;;;;;7.17;95.97;99776.59;3638455;79;98265;-88
2021/11/05 04:56:26;;;;;;;0.70;0.43;;;;;;;7.13;96.06;99763.42;3676845;79;98172;-87
2021/11/05 05:01:27;;;;;;;2.33;0.60;;;;;;;7.11;96.11;99773.39;3665820;79;98465;-89
2021/11/05 05:06:28;;;;;;;2.43;0.63;;;;;;;7.10;96.18;99780.00;3655441;79;98395;-88
2021/11/05 05:11:28;;;;;;;6.40;2.30;;;;;;;7.09;96.21;99789.97;3662452;79;98321;-86
2021/11/05 05:16:29;;;;;;;2.63;1.60;;;;;;;7.10;96.26;99797.78;3672551;79;98813;-87
2021/11/05 05:21:30;;;;;;;2.25;1.15;;;;;;;7.08;96.48;99811.05;3673931;78;98442;-87
2021/11/05 05:26:31;;;;;;;2.23;1.10;;;;;;;7.08;96.88;99822.56;3683708;78;98216;-87
2021/11/05 05:31:31;;;;;;;3.47;1.60;;;;;;;7.07;97.14;99842.88;3667848;79;98280;-88
2021/11/05 05:36:32;;;;;;;2.17;1.03;;;;;;;7.03;97.45;99833.25;3665283;79;98843;-88
2021/11/05 05:41:33;;;;;;;3.05;1.25;;;;;;;7.02;97.55;99854.13;3634480;79;98665;-87
2021/11/05 05:46:34;;;;;;;1.67;0.90;;;;;;;7.00;97.68;99857.83;3651287;79;98282;-87
2021/11/05 05:51:35;;;;;;;1.20;0.80;;;;;;;7.01;97.68;99877.98;3645699;79;98296;-87
2021/11/05 05:56:36;;;;;;;1.83;1.00;;;;;;;6.99;97.68;99886.34;3658797;79;98823;-88
2021/11/05 06:01:37;;;;;;;2.03;0.97;;;;;;;6.96;97.95;99896.07;3662889;78;98117;-88
2021/11/05 06:06:37;;;;;;;2.03;0.90;;;;;;;6.96;98.00;99902.91;3674104;79;98356;-87
2021/11/05 06:11:38;;;;;;;2.70;1.20;;;;;;;6.97;97.91;99923.63;3666484;80;98324;-87
2021/11/05 06:16:40;;;;;;;2.30;0.98;;;;;;;6.97;97.91;99930.47;3678139;78;98282;-92
2021/11/05 06:21:41;;;;;;;6.53;2.03;;;;;;;6.99;97.85;99939.69;3668443;78;98630;-89
2021/11/05 06:26:42;;;;;;;6.57;1.37;;;;;;;6.99;97.97;99954.14;3663908;79;98193;-87
2021/11/05 06:31:43;;;;;;;2.10;0.97;;;;;;;7.00;97.87;99967.25;3661703;79;98424;-88
2021/11/05 06:36:43;;;;;;;2.70;1.23;;;;;;;7.02;97.78;99977.24;3627835;80;98291;-88
2021/11/05 06:41:44;;;;;;;2.20;1.15;;;;;;;7.04;97.60;99991.38;3641190;79;98450;-88
2021/11/05 06:46:45;;;;;;;3.30;1.20;;;;;;;7.07;97.51;99992.00;3679471;78;98349;-91
2021/11/05 06:51:45;;;;;;;2.50;1.07;;;;;;;7.14;97.33;100020.88;3663298;78;98285;-86
2021/11/05 06:56:47;;;;;;;2.30;1.12;;;;;;;7.14;97.33;100020.88;3677133;78;98360;-89
2021/11/05 07:01:47;;;;;;;3.03;1.40;;;;;;;7.16;97.33;100028.13;3669216;78;98708;-87
2021/11/05 07:06:48;;;;;;;2.17;1.10;;;;;;;7.19;97.39;100043.24;3650105;79;98563;-86
2021/11/05 07:11:50;;;;;;;3.33;1.63;;;;;;;7.24;97.35;100055.27;3639587;79;99941;-86
2021/11/05 07:16:51;;;;;;;2.87;1.50;;;;;;;7.28;97.19;100062.97;3646608;79;98523;-88
2021/11/05 07:22:02;;;;;;;4.07;1.70;;;;;;;7.32;97.13;100076.71;3633954;79;98154;-89
2021/11/05 07:27:04;;;;;;;2.65;1.42;;;;;;;7.35;96.96;100087.72;3637887;79;98086;-85
2021/11/05 07:32:08;;;;;;;2.77;1.20;;;;;;;7.38;96.76;100092.48;3619620;80;98642;-88
2021/11/05 07:37:18;;;;;;;2.77;1.22;;;;;;;7.40;96.72;100107.16;3626835;79;98352;-86
2021/11/05 07:42:19;;;;;;;3.27;1.45;;;;;;;7.43;96.57;100115.45;3622278;79;98538;-88
2021/11/05 07:47:23;;;;;;;4.33;1.40;;;;;;;7.47;96.52;100131.95;3627848;79;98540;-87
2021/11/05 07:52:23;;;;;;;3.35;1.47;;;;;;;7.48;96.51;100142.52;3628383;79;108361;-88
2021/11/05 07:57:25;;;;;;;3.90;1.30;;;;;;;7.52;96.47;100150.81;3645836;79;27415;-86
2021/11/05 08:02:26;;;;;;;2.45;1.50;;;;;;;7.56;96.60;100162.05;3636834;79;98546;-87
2021/11/05 08:07:26;;;;;;;3.63;2.00;;;;;;;7.59;96.53;100175.59;3612708;79;98465;-87
2021/11/05 08:12:27;;;;;;;4.13;1.50;;;;;;;7.63;96.48;100186.04;3611990;80;98882;-86
2021/11/05 08:17:30;;;;;;;5.63;1.60;;;;;;;7.69;96.67;100199.05;3613567;80;98466;-86
2021/11/05 08:22:30;;;;;;;4.08;1.70;;;;;;;7.75;96.67;100204.45;3610488;80;98599;-87
2021/11/05 08:27:31;;;;;;;5.13;2.00;;;;;;;7.84;96.64;100212.43;3619650;80;32615;-87
2021/11/05 08:32:32;;;;;;;3.90;1.67;;;;;;;7.89;96.65;100234.05;3597558;81;98487;-87
2021/11/05 08:37:33;;;;;;;5.47;2.00;;;;;;;7.91;96.80;100242.72;3560151;81;98451;-87
2021/11/05 08:42:35;;;;;;;4.43;1.93;;;;;;;7.95;97.01;100247.66;3581780;81;98497;-88
2021/11/05 08:47:41;;;;;;;5.97;2.37;;;;;;;7.95;97.39;100265.48;3586673;81;98528;-87
2021/11/05 08:52:41;;;;;;;5.25;2.50;;;;;;;7.95;97.78;100275.88;3580000;81;98570;-85
2021/11/05 08:57:44;;;;;;;4.23;2.30;;;;;;;7.96;98.24;100286.27;3471359;82;26755;-86
2021/11/05 09:02:46;;;;;;;5.83;3.08;;;;;;;7.96;98.74;100293.12;3502220;82;98681;-84
2021/11/05 09:07:47;;;;;;;7.33;3.27;;;;;;;7.94;98.96;100300.33;3576245;80;98475;-84
2021/11/05 09:12:48;;;;;;;7.13;3.23;;;;;;;7.93;99.36;100310.27;3618779;79;98974;-83
2021/11/05 09:17:52;;;;;;;8.10;3.60;;;;;;;7.88;99.95;100317.41;3566571;80;98392;-84
2021/11/05 09:22:52;;;;;;;6.90;3.20;;;;;;;7.84;100.00;100320.65;3570184;80;98487;-84
2021/11/05 09:27:53;;;;;;;7.00;3.40;;;;;;;7.81;100.00;100337.83;3643926;79;33339;-84
2021/11/05 09:32:54;;;;;;;7.17;3.50;;;;;;;7.78;100.00;100342.08;3603964;80;98819;-84
2021/11/05 09:37:55;;;;;;;7.50;3.47;;;;;;;7.79;100.00;100365.58;3564983;81;98888;-86
2021/11/05 09:42:58;;;;;;;7.13;3.63;;;;;;;7.80;100.00;100362.27;3574530;80;98736;-84
2021/11/05 09:48:00;;;;;;;7.00;3.77;;;;;;;7.81;100.00;100372.84;3600842;80;98774;-84
2021/11/05 09:53:01;;;;;;;7.12;3.30;;;;;;;7.79;100.00;100379.27;3599697;80;98695;-84
2021/11/05 09:58:02;;;;;;;7.50;3.80;;;;;;;7.79;100.00;100388.09;3604315;80;25999;-86
2021/11/05 10:03:03;;;;;;;7.37;3.90;;;;;;;7.80;100.00;100391.03;3564796;80;98353;-87
2021/11/05 10:08:06;;;;;;;10.47;4.87;;;;;;;7.83;100.00;100399.33;3556883;81;98576;-85
2021/11/05 10:13:11;;;;;;;8.55;4.37;;;;;;;7.84;100.00;100400.91;3545367;81;98958;-82
2021/11/05 10:18:26;;;;;;;10.80;5.60;;;;;;;7.86;100.00;100416.41;3593810;80;98604;-84
2021/11/05 10:23:27;;;;;;;10.82;6.15;;;;;;;7.89;100.00;100421.18;3660576;78;99252;-85
2021/11/05 10:28:28;;;;;;;12.17;6.67;;;;;;;7.95;100.00;100430.70;3652636;78;123731;-86
2021/11/05 10:33:42;;;;;;;11.43;5.90;;;;;;;7.96;100.00;100441.88;3694532;79;99011;-86
2021/11/05 10:38:50;;;;;;;11.60;6.92;;;;;;;7.99;100.00;100445.84;3704579;79;98721;-85
2021/11/05 10:43:57;;;;;;;11.53;6.47;;;;;;;8.00;100.00;100453.71;3689044;78;98861;-83
2021/11/05 10:49:03;;;;;;;13.55;7.40;;;;;;;7.98;100.00;100466.99;3702381;78;98853;-85
2021/11/05 10:54:04;;;;;;;11.83;7.12;;;;;;;7.99;100.00;100478.73;3670633;78;99037;-84
2021/11/05 10:59:10;;;;;;;13.95;7.47;;;;;;;7.98;100.00;100472.47;3650107;79;98785;-86
2021/11/05 11:04:13;;;;;;;16.83;8.53;;;;;;;7.96;100.00;100489.83;3658166;79;99195;-85
2021/11/05 11:09:21;;;;;;;15.30;8.53;;;;;;;7.97;100.00;100501.59;3698271;78;46394;-84
2021/11/05 11:14:31;;;;;;;16.02;8.95;;;;;;;7.97;100.00;100511.97;3698124;78;98846;-85
2021/11/05 11:19:36;;;;;;;18.37;9.95;;;;;;;7.99;100.00;100517.91;3702325;78;97914;-86
2021/11/05 11:24:41;;;;;;;17.73;10.85;;;;;;;7.99;100.00;100530.23;3696580;78;98801;-86
2021/11/05 11:29:41;;;;;;;19.42;10.68;;;;;;;8.02;100.00;100534.98;3695521;78;99166;-88
2021/11/05 11:34:44;;;;;;;17.62;10.90;;;;;;;8.01;100.00;100545.73;3682586;78;99730;-86
2021/11/05 11:39:45;;;;;;;20.50;11.20;;;;;;;8.03;100.00;100545.39;3645548;79;30017;-85
2021/11/05 11:44:46;;;;;;;18.60;11.20;;;;;;;8.06;100.00;100552.88;3663846;79;98812;-86
2021/11/05 11:49:49;;;;;;;18.92;11.63;;;;;;;8.06;100.00;100558.36;3693360;78;99314;-84
2021/11/05 11:54:58;;;;;;;22.37;13.03;;;;;;;8.08;100.00;100560.97;3673509;78;99084;-86
2021/11/05 12:00:24;;;;;;;21.12;13.08;;;;;;;8.13;100.00;100568.91;3688311;78;99026;-86
2021/11/05 12:05:36;;;;;;;19.23;11.25;;;;;;;8.13;100.00;100572.25;3653602;78;99031;-84
2021/11/05 12:10:37;;;;;;;22.20;12.00;;;;;;;8.13;100.00;100579.11;3575513;81;99074;-86
2021/11/05 12:15:38;;;;;;;21.80;12.05;;;;;;;8.15;100.00;100586.38;3546571;81;98758;-86
2021/11/05 12:20:41;;;;;;;19.30;11.33;;;;;;;8.14;100.00;100584.80;3556829;81;98860;-86
2021/11/05 12:25:58;;;;;;;21.05;12.35;;;;;;;8.13;100.00;100596.33;3563864;81;99394;-87
2021/11/05 12:31:30;;;;;;;19.73;12.30;;;;;;;8.14;100.00;100591.66;3568945;81;99117;-85
2021/11/05 12:36:56;;;;;;;21.03;12.10;;;;;;;8.13;100.00;100603.77;3550632;81;98942;-85
2021/11/05 12:42:10;;;;;;;21.05;13.00;;;;;;;8.15;100.00;100598.72;3569975;81;99058;-85
2021/11/05 12:47:11;;;;;;;16.80;10.75;;;;;;;8.18;100.00;100602.91;3579687;82;99082;-84
2021/11/05 12:52:12;;;;;;;19.77;11.90;;;;;;;8.20;100.00;100608.08;3575930;81;99161;-86
2021/11/05 12:57:13;;;;;;;17.87;11.40;;;;;;;8.21;100.00;100615.14;3583824;81;32195;-86
2021/11/05 13:02:13;;;;;;;23.27;13.10;;;;;;;8.22;100.00;100625.77;3550312;80;1971333;-87
2021/11/05 13:07:14;;;;;;;23.45;12.60;;;;;;;8.24;100.00;100629.52;3582888;81;99351;-86
2021/11/05 13:12:18;;;;;;;20.03;11.90;;;;;;;8.23;100.00;100634.20;3706225;78;99228;-86
2021/11/05 13:17:27;;;;;;;18.37;11.83;;;;;;;8.24;100.00;100638.52;3718472;78;99393;-87
2021/11/05 13:22:32;;;;;;;19.20;11.70;;;;;;;8.23;100.00;100645.16;3700918;78;98989;-85
2021/11/05 13:27:33;;;;;;;18.95;11.95;;;;;;;8.22;100.00;100654.55;3714079;78;55034;-87
2021/11/05 13:32:37;;;;;;;21.07;12.93;;;;;;;8.22;100.00;100665.52;3702502;78;99329;-87
2021/11/05 13:37:37;;;;;;;18.77;11.85;;;;;;;8.21;100.00;100664.49;3711212;78;99257;-85
2021/11/05 13:42:38;;;;;;;18.93;12.20;;;;;;;8.22;100.00;100674.30;3701525;78;99476;-87
2021/11/05 13:47:46;;;;;;;19.47;12.03;;;;;;;8.21;100.00;100678.20;3704050;78;99019;-86
2021/11/05 13:53:00;;;;;;;21.82;12.28;;;;;;;8.19;100.00;100684.00;3708034;78;99089;-88
2021/11/05 13:58:04;;;;;;;19.95;11.68;;;;;;;8.21;100.00;100689.17;3707197;78;90106;-86
2021/11/05 14:03:05;;;;;;;22.50;12.37;;;;;;;8.22;100.00;100701.16;3705591;78;99128;-87
2021/11/05 14:08:10;;;;;;;19.97;11.07;;;;;;;8.22;100.00;100706.64;3689704;78;98862;-85
2021/11/05 14:13:11;;;;;;;23.30;12.45;;;;;;;8.20;100.00;100722.66;3669693;79;99093;-87
2021/11/05 14:18:22;;;;;;;18.80;10.70;;;;;;;8.20;100.00;100716.37;3668607;78;99059;-86
2021/11/05 14:23:28;;;;;;;22.22;11.75;;;;;;;8.20;100.00;100725.96;3638183;79;99147;-86
2021/11/05 14:28:29;;;;;;;21.70;11.33;;;;;;;8.20;100.00;100731.45;3674020;78;99138;-86
2021/11/05 14:33:29;;;;;;;18.47;11.20;;;;;;;8.20;100.00;100741.05;3662412;78;98986;-87
2021/11/05 14:38:30;;;;;;;21.67;11.13;;;;;;;8.18;100.00;100740.58;3669492;78;98826;-85
2021/11/05 14:43:31;;;;;;;19.23;10.73;;;;;;;8.18;100.00;100748.21;3664962;79;99191;-85
2021/11/05 14:48:32;;;;;;;20.87;11.40;;;;;;;8.16;100.00;100754.63;3672730;79;99012;-84
2021/11/05 14:53:40;;;;;;;17.80;10.53;;;;;;;8.16;100.00;100760.68;3665054;78;105603;-85
2021/11/05 14:58:42;;;;;;;21.62;11.18;;;;;;;8.13;100.00;100764.14;3685963;78;99260;-86
2021/11/05 15:03:48;;;;;;;19.35;10.72;;;;;;;8.11;100.00;100760.38;3676305;78;99100;-84
2021/11/05 15:08:50;;;;;;;18.03;10.60;;;;;;;8.07;100.00;100767.70;3698225;78;98892;-85
2021/11/05 15:13:53;;;;;;;21.48;10.43;;;;;;;8.02;100.00;100776.77;3710785;78;98960;-84
2021/11/05 15:18:59;;;;;;;18.65;10.32;;;;;;;8.02;100.00;100782.25;3723902;78;98941;-87
2021/11/05 15:24:02;;;;;;;18.35;10.13;;;;;;;8.00;100.00;100783.97;3707311;78;254586;-85
2021/11/05 15:29:02;;;;;;;18.87;10.98;;;;;;;7.98;100.00;100786.84;3728967;78;99162;-86
2021/11/05 15:34:03;;;;;;;20.53;9.90;;;;;;;7.97;100.00;100800.33;3716255;78;98748;-85
2021/11/05 15:39:04;;;;;;;19.57;9.80;;;;;;;7.92;100.00;100799.98;3727503;78;98572;-85
2021/11/05 15:44:08;;;;;;;17.93;10.00;;;;;;;7.90;100.00;100799.55;3712919;78;98750;-84
2021/11/05 15:49:09;;;;;;;16.83;9.60;;;;;;;7.88;100.00;100823.77;3722625;77;99081;-84
2021/11/05 15:54:09;;;;;;;14.78;8.48;;;;;;;7.86;100.00;100828.01;3719835;78;99407;-83
2021/11/05 15:59:10;;;;;;;15.47;8.30;;;;;;;7.81;100.00;100833.14;3717781;78;99127;-84
2021/11/05 16:04:11;;;;;;;15.77;8.60;;;;;;;7.76;100.00;100840.27;3726714;78;98855;-85
2021/11/05 16:09:13;;;;;;;16.33;8.80;;;;;;;7.73;100.00;100843.69;3731729;78;34920;-84
2021/11/05 16:14:14;;;;;;;16.23;9.40;;;;;;;7.70;100.00;100852.59;3732329;78;98801;-84
2021/11/05 16:19:15;;;;;;;23.47;11.40;;;;;;;7.69;100.00;100857.07;3734757;78;98824;-84
2021/11/05 16:24:17;;;;;;;16.57;9.57;;;;;;;7.68;100.00;100866.44;3726254;78;99082;-84
2021/11/05 16:29:18;;;;;;;17.80;8.60;;;;;;;7.64;100.00;100869.05;3726653;78;98861;-82
2021/11/05 16:34:18;;;;;;;18.30;8.53;;;;;;;7.62;100.00;100875.45;3715347;78;98834;-83
2021/11/05 16:39:19;;;;;;;20.63;10.03;;;;;;;7.59;100.00;100884.94;3724557;78;32497;-84
2021/11/05 16:44:24;;;;;;;14.63;7.53;;;;;;;7.57;100.00;100892.13;3719672;78;99007;-84
2021/11/05 16:49:25;;;;;;;15.63;6.67;;;;;;;7.55;100.00;100898.53;3710731;78;98893;-84
2021/11/05 16:54:26;;;;;;;12.37;6.40;;;;;;;7.53;100.00;100898.65;3705058;78;99394;-84
2021/11/05 16:59:28;;;;;;;12.80;6.62;;;;;;;7.51;100.00;100905.02;3723238;78;99140;-84
2021/11/05 17:04:30;;;;;;;11.83;5.37;;;;;;;7.51;100.00;100914.05;3712369;78;98807;-84
2021/11/05 17:09:31;;;;;;;13.03;6.40;;;;;;;7.50;100.00;100915.20;3708269;78;71818;-86
2021/11/05 17:14:32;;;;;;;12.43;4.40;;;;;;;7.49;100.00;100923.19;3665550;78;99115;-85
2021/11/05 17:19:32;;;;;;;9.53;4.17;;;;;;;7.48;100.00;100933.89;3680502;78;98715;-82
2021/11/05 17:24:33;;;;;;;10.60;4.93;;;;;;;7.47;100.00;100932.30;3665055;78;98679;-86
2021/11/05 17:29:34;;;;;;;12.00;5.13;;;;;;;7.48;100.00;100926.27;3668051;78;99173;-84
2021/11/05 17:34:35;;;;;;;11.33;5.40;;;;;;;7.47;100.00;100930.16;3670259;78;98921;-84
2021/11/05 17:39:35;;;;;;;12.33;5.20;;;;;;;7.47;100.00;100942.48;3655944;78;32470;-82
2021/11/05 17:44:36;;;;;;;13.17;6.90;;;;;;;7.46;100.00;100944.97;3674932;78;98677;-84
2021/11/05 17:49:37;;;;;;;10.60;4.50;;;;;;;7.45;100.00;100945.55;3663725;78;98689;-84
2021/11/05 17:54:38;;;;;;;14.23;5.00;;;;;;;7.46;100.00;100949.08;3674439;78;98878;-84
2021/11/05 17:59:40;;;;;;;12.73;4.90;;;;;;;7.47;100.00;100960.28;3666205;78;98833;-82
2021/11/05 18:04:41;;;;;;;11.67;5.10;;;;;;;7.46;100.00;100962.77;3658817;78;99112;-83
2021/11/05 18:09:41;;;;;;;11.47;4.90;;;;;;;7.46;100.00;100964.95;3712069;78;31586;-82
2021/11/05 18:14:42;;;;;;;12.00;5.33;;;;;;;7.48;100.00;100974.20;3704751;78;99340;-82
2021/11/05 18:19:44;;;;;;;11.93;6.40;;;;;;;7.48;100.00;100972.83;3709700;78;98653;-83
2021/11/05 18:24:46;;;;;;;15.17;5.73;;;;;;;7.49;100.00;100978.53;3713508;78;98900;-83
2021/11/05 18:29:49;;;;;;;12.77;5.97;;;;;;;7.49;100.00;100988.11;3717659;78;107260;-83
2021/11/05 18:34:49;;;;;;;12.45;6.00;;;;;;;7.48;100.00;100987.30;3716413;78;99094;-82
2021/11/05 18:39:50;;;;;;;11.77;6.00;;;;;;;7.49;100.00;100986.74;3716823;78;32201;-84
2021/11/05 18:44:59;;;;;;;19.17;7.67;;;;;;;7.51;100.00;100986.63;3715734;78;99007;-84
2021/11/05 18:49:55;;;;;;;12.50;6.87;;;;;;;7.52;100.00;101001.91;3715602;78;99131;-84
2021/11/05 18:54:56;;;;;;;16.25;8.10;;;;;;;7.53;100.00;101003.50;3716984;78;98894;-85
2021/11/05 18:59:57;;;;;;;19.23;8.90;;;;;;;7.56;100.00;101012.98;3730043;78;99270;-83
2021/11/05 19:04:57;;;;;;;15.90;8.20;;;;;;;7.57;100.00;101007.72;3718056;78;98934;-85
2021/11/05 19:09:59;;;;;;;15.27;8.20;;;;;;;7.55;100.00;101005.35;3723631;78;45730;-83
2021/11/05 19:15:01;;;;;;;17.13;9.20;;;;;;;7.62;100.00;101015.72;3684846;78;98543;-85
2021/11/05 19:20:05;;;;;;;17.70;8.87;;;;;;;7.64;100.00;101018.34;3715257;78;99039;-84
2021/11/05 19:25:09;;;;;;;17.10;8.93;;;;;;;7.65;100.00;101032.30;3713685;78;98850;-84
2021/11/05 19:30:17;;;;;;;17.50;9.20;;;;;;;7.68;100.00;101029.44;3725399;78;99081;-83
2021/11/05 19:35:20;;;;;;;16.48;9.18;;;;;;;7.70;100.00;101042.21;3726307;78;98699;-84
2021/11/05 19:40:21;;;;;;;17.02;9.50;;;;;;;7.72;100.00;101048.14;3701936;78;1807464;-84
2021/11/05 19:45:23;;;;;;;23.43;10.57;;;;;;;7.74;100.00;101051.36;3730498;77;98649;-83
2021/11/05 19:50:25;;;;;;;20.70;10.63;;;;;;;7.77;100.00;101057.50;3732487;78;99318;-84
2021/11/05 19:55:29;;;;;;;19.93;10.80;;;;;;;7.78;100.00;101054.42;3721602;78;99085;-84
2021/11/05 20:00:30;;;;;;;19.82;10.48;;;;;;;7.80;100.00;101055.45;3732639;78;99057;-84
2021/11/05 20:11:12;;;;;;;23.00;10.95;;;;;;;7.84;100.00;101067.31;3627371;79;99269;-88
2021/11/05 20:16:14;;;;;;;21.15;11.30;;;;;;;7.86;100.00;101067.20;3604153;80;61857;-86
2021/11/05 20:21:15;;;;;;;22.32;12.53;;;;;;;7.88;100.00;101066.30;3653854;79;98817;-91
2021/11/05 20:26:17;;;;;;;22.53;10.73;;;;;;;7.90;100.00;101073.59;3550267;82;98761;-89
2021/11/05 20:31:18;;;;;;;19.77;11.45;;;;;;;7.93;100.00;101075.66;3572717;82;99031;-91
2021/11/05 20:36:20;;;;;;;19.42;11.28;;;;;;;7.95;100.00;101078.84;3549160;81;114061;-89
2021/11/05 20:41:22;;;;;;;26.02;14.30;;;;;;;7.98;100.00;101076.00;3641554;79;99250;-87
2021/11/05 20:46:24;;;;;;;23.37;13.30;;;;;;;7.98;100.00;101078.73;3582755;82;30062;-87
2021/11/05 20:51:26;;;;;;;22.07;12.10;;;;;;;8.00;100.00;101084.66;3577680;81;98771;-88
2021/11/05 20:56:27;;;;;;;22.32;13.13;;;;;;;7.99;100.00;101079.77;3600818;80;98829;-87
2021/11/05 21:01:28;;;;;;;27.60;14.73;;;;;;;7.99;100.00;101082.51;3593552;81;99014;-89
2021/11/05 21:06:32;;;;;;;36.42;17.80;;;;;;;8.01;100.00;101099.41;3589679;80;104759;-88
2021/11/05 21:11:34;;;;;;;22.95;13.48;;;;;;;8.02;100.00;101087.87;3590344;80;100241;-90
2021/11/05 21:16:36;;;;;;;25.23;14.45;;;;;;;8.04;100.00;101088.33;3569525;81;99197;-87
2021/11/05 21:21:38;;;;;;;27.80;16.82;;;;;;;8.05;100.00;101088.55;3637283;79;99221;-87
2021/11/05 21:26:39;;;;;;;24.82;13.58;;;;;;;8.04;100.00;101095.98;3648718;79;98926;-88
2021/11/05 21:31:41;;;;;;;26.70;15.90;;;;;;;8.06;100.00;101110.70;3667508;79;99262;-87
2021/11/05 21:36:44;;;;;;;25.10;15.75;;;;;;;8.07;100.00;101112.32;3666155;79;99061;-87
2021/11/05 21:41:47;;;;;;;26.30;15.18;;;;;;;8.08;100.00;101115.28;3665211;79;99152;-87
2021/11/05 21:46:48;;;;;;;24.27;14.43;;;;;;;8.10;100.00;101117.91;3670456;79;99031;-90
2021/11/05 21:51:50;;;;;;;24.45;13.68;;;;;;;8.11;100.00;101118.14;3584230;80;98868;-87
2021/11/05 21:56:51;;;;;;;24.27;13.70;;;;;;;8.14;100.00;101121.58;3575717;81;98120;-89
2021/11/05 22:01:53;;;;;;;21.37;13.95;;;;;;;8.16;100.00;101132.17;3577770;81;334175;-88
2021/11/05 22:06:58;;;;;;;24.77;13.67;;;;;;;8.17;100.00;101129.66;3578777;80;98476;-89
2021/11/05 22:11:59;;;;;;;24.65;13.38;;;;;;;8.17;100.00;101133.20;3572515;80;464988;-87
2021/11/05 22:17:01;;;;;;;20.82;12.40;;;;;;;8.19;100.00;101142.47;3574331;81;99277;-86
2021/11/05 22:22:03;;;;;;;23.38;12.50;;;;;;;8.18;100.00;101149.88;3562262;81;99105;-86
2021/11/05 22:27:05;;;;;;;21.70;12.00;;;;;;;8.20;100.00;101152.31;3575028;82;98951;-85
2021/11/05 22:32:07;;;;;;;22.35;13.65;;;;;;;8.19;100.00;101154.22;3557656;82;99398;-86
2021/11/05 22:37:10;;;;;;;23.90;12.98;;;;;;;8.20;100.00;101155.87;3551807;81;98931;-86
2021/11/05 22:42:11;;;;;;;22.50;12.50;;;;;;;8.22;100.00;101159.06;3564293;81;99101;-85
2021/11/05 22:47:15;;;;;;;21.10;11.70;;;;;;;8.23;100.00;101163.39;3516322;82;99024;-84
2021/11/05 22:52:17;;;;;;;21.52;11.90;;;;;;;8.27;100.00;101170.36;3494937;82;98962;-85
2021/11/05 22:57:18;;;;;;;17.85;11.68;;;;;;;8.27;100.00;101175.28;3602756;81;98631;-84
2021/11/05 23:02:19;;;;;;;24.35;11.97;;;;;;;8.28;100.00;101172.77;3577274;81;98907;-84
2021/11/05 23:07:21;;;;;;;18.20;11.63;;;;;;;8.30;100.00;101173.80;3545466;82;99063;-84
2021/11/05 23:12:23;;;;;;;20.55;12.18;;;;;;;8.30;100.00;101177.33;3553590;80;149619;-84
2021/11/05 23:17:24;;;;;;;23.62;12.05;;;;;;;8.30;100.00;101177.33;3710921;79;98348;-84
2021/11/05 23:22:26;;;;;;;18.42;9.95;;;;;;;8.31;100.00;101172.09;3705222;78;99058;-84
2021/11/05 23:27:28;;;;;;;17.37;10.80;;;;;;;8.30;100.00;101177.91;3719531;79;97778;-85